Time;durP1;ratioP1;P1;durP2;ratioP2;P2;SDS_P1;SDS_P2;PMS_P1;PMS_P2;Temp;Humidity;BMP_temperature;BMP_pressure;BME280_temperature;BME280_humidity;BME280_pressure;Samples;Min_cycle;Max_cycle;Signal;HPM_P1;HPM_P2
2023/10/03 00:00:54;;;;;;;13.40;4.50;;;;;;;6.93;78.53;99697.48;104941;1267;73382;-23
2023/10/03 00:03:23;;;;;;;12.10;4.80;;;;;;;7.41;78.97;99696.46;105345;1264;74475;-23
2023/10/03 00:05:51;;;;;;;13.60;6.20;;;;;;;8.05;77.56;99698.30;105501;1262;73183;-23
2023/10/03 00:08:18;;;;;;;14.80;6.70;;;;;;;8.18;76.68;99698.02;105288;1262;61123;-24
2023/10/03 00:10:45;;;;;;;16.90;6.60;;;;;;;8.07;76.53;99699.05;105412;1268;61176;-23
2023/10/03 00:13:12;;;;;;;13.20;7.00;;;;;;;7.94;76.59;99698.98;105502;1261;72953;-23
2023/10/03 00:15:45;;;;;;;15.20;7.10;;;;;;;7.76;76.80;99699.83;105500;1261;74358;-23
2023/10/03 00:18:13;;;;;;;19.40;7.80;;;;;;;7.59;77.25;99698.58;105496;1263;72635;-23
2023/10/03 00:20:41;;;;;;;14.80;4.80;;;;;;;7.46;78.11;99699.50;105226;1257;61125;-23
2023/10/03 00:23:08;;;;;;;12.80;5.60;;;;;;;7.90;78.55;99695.92;105083;1257;61153;-23
2023/10/03 00:25:36;;;;;;;14.20;6.80;;;;;;;8.43;77.02;99702.58;105270;1266;72875;-23
2023/10/03 00:28:05;;;;;;;12.50;6.10;;;;;;;8.50;76.14;99704.61;105296;1262;74324;-23
2023/10/03 00:30:35;;;;;;;13.50;6.80;;;;;;;8.36;76.25;99704.73;105232;1257;71436;-23
2023/10/03 00:33:04;;;;;;;14.20;6.40;;;;;;;8.19;76.52;99704.70;105144;1258;61074;-23
2023/10/03 00:35:32;;;;;;;11.60;6.40;;;;;;;7.98;76.83;99706.66;105224;1258;61256;-24
2023/10/03 00:38:00;;;;;;;16.40;7.40;;;;;;;7.81;77.51;99702.51;105349;1258;72967;-23
2023/10/03 00:40:28;;;;;;;13.00;5.50;;;;;;;7.68;77.91;99696.86;105511;1262;74885;-23
2023/10/03 00:42:57;;;;;;;13.00;5.30;;;;;;;8.13;78.31;99693.33;105556;1263;73083;-23
2023/10/03 00:45:26;;;;;;;12.30;6.00;;;;;;;8.75;77.01;99689.16;105197;1263;61114;-23
2023/10/03 00:47:55;;;;;;;17.50;6.90;;;;;;;8.90;75.74;99683.57;105289;1265;61111;-24
2023/10/03 00:50:23;;;;;;;15.20;6.90;;;;;;;8.75;75.22;99681.20;105279;1263;70671;-24
2023/10/03 00:52:55;;;;;;;17.20;6.70;;;;;;;8.53;75.49;99684.65;105201;1265;72114;-23
2023/10/03 00:55:26;;;;;;;19.60;7.20;;;;;;;8.26;76.36;99687.89;105260;1256;73268;-23
2023/10/03 00:58:06;;;;;;;15.00;7.00;;;;;;;8.00;77.53;99685.63;105278;1257;61118;-23
2023/10/03 01:00:37;;;;;;;13.20;5.30;;;;;;;7.74;79.94;99678.49;105691;1269;61167;-23
2023/10/03 01:03:09;;;;;;;15.40;5.80;;;;;;;8.28;79.88;99677.73;105694;1257;73100;-24
2023/10/03 01:05:37;;;;;;;20.10;7.10;;;;;;;8.93;78.00;99674.55;105399;1259;74493;-23
2023/10/03 01:08:05;;;;;;;16.00;6.80;;;;;;;9.06;76.67;99677.49;105606;1252;72591;-23
2023/10/03 01:10:33;;;;;;;15.40;6.90;;;;;;;8.99;76.25;99673.44;105697;1254;61001;-23
2023/10/03 01:13:13;;;;;;;20.30;7.90;;;;;;;8.87;76.44;99680.29;105600;1254;61129;-24
2023/10/03 01:15:40;;;;;;;13.40;7.20;;;;;;;8.70;76.92;99679.98;105566;1258;72991;-23
2023/10/03 01:18:13;;;;;;;16.20;7.80;;;;;;;8.52;77.22;99673.33;105523;1258;74308;-23
2023/10/03 01:20:41;;;;;;;10.50;5.20;;;;;;;8.41;77.86;99673.27;105524;1257;72418;-23
2023/10/03 01:23:13;;;;;;;10.60;4.90;;;;;;;8.89;77.91;99669.61;105635;1255;60989;-23
2023/10/03 01:25:42;;;;;;;15.30;6.30;;;;;;;9.49;76.38;99663.65;105660;1257;61176;-23
2023/10/03 01:28:11;;;;;;;14.20;6.70;;;;;;;9.61;75.44;99661.05;105718;1257;72991;-23
2023/10/03 01:30:40;;;;;;;14.90;6.30;;;;;;;9.52;75.45;99660.48;105715;1254;74321;-24
2023/10/03 01:33:09;;;;;;;13.90;6.20;;;;;;;9.34;75.58;99659.89;105689;1259;70809;-24
2023/10/03 01:35:37;;;;;;;16.50;7.10;;;;;;;9.17;76.28;99658.62;105742;1253;61326;-24
2023/10/03 01:38:07;;;;;;;15.20;7.60;;;;;;;9.03;76.49;99658.32;105681;1258;61179;-23
2023/10/03 01:40:35;;;;;;;12.30;5.90;;;;;;;8.91;76.87;99657.17;105659;1254;72782;-24
2023/10/03 01:43:02;;;;;;;13.80;5.60;;;;;;;9.33;77.48;99651.13;105559;1260;73937;-23
2023/10/03 01:45:33;;;;;;;14.40;7.10;;;;;;;9.86;76.02;99650.04;105661;1257;73043;-23
2023/10/03 01:48:00;;;;;;;15.40;6.80;;;;;;;9.95;75.77;99645.73;105758;1258;61192;-23
2023/10/03 01:50:33;;;;;;;18.40;7.10;;;;;;;9.87;75.58;99641.48;105775;1256;61732;-24
2023/10/03 01:53:02;;;;;;;;;;;;;;;9.74;75.68;99644.56;105530;1269;72999;-23
2023/10/03 01:55:29;;;;;;;16.20;6.70;;;;;;;9.55;76.67;99643.61;105678;1254;74839;-23
2023/10/03 01:57:58;;;;;;;17.00;6.40;;;;;;;9.39;77.29;99636.36;105846;1255;71677;-23
2023/10/03 02:00:26;;;;;;;13.00;5.50;;;;;;;9.31;78.06;99634.99;105910;1257;62001;-23
2023/10/03 02:03:12;;;;;;;21.00;6.10;;;;;;;9.77;77.72;99635.92;105497;1257;61176;-26
2023/10/03 02:05:43;;;;;;;15.70;6.20;;;;;;;10.31;76.09;99635.26;105561;1254;73023;-22
2023/10/03 02:10:39;;;;;;;13.20;6.10;;;;;;;10.22;75.28;99629.52;105683;1257;72634;-22
2023/10/03 02:13:12;;;;;;;16.20;6.50;;;;;;;10.09;75.30;99628.86;105611;1255;61299;-23
2023/10/03 02:15:39;;;;;;;15.20;6.90;;;;;;;9.91;75.84;99628.48;105545;1258;61119;-23
2023/10/03 02:18:09;;;;;;;14.60;6.90;;;;;;;9.76;76.09;99622.92;105515;1254;73614;-23
2023/10/03 02:21:23;;;;;;;7.60;3.70;;;;;;;9.66;76.88;99624.85;105667;1256;73288;-23
2023/10/03 02:23:25;;;;;;;12.30;5.80;;;;;;;10.26;76.77;99629.96;105523;1258;72546;-23
2023/10/03 02:25:57;;;;;;;13.00;7.10;;;;;;;10.74;75.02;99634.65;105651;1254;61107;-23
2023/10/03 02:28:27;;;;;;;12.20;5.70;;;;;;;10.81;74.08;99634.73;105700;1254;61125;-23
2023/10/03 02:30:56;;;;;;;15.80;6.30;;;;;;;10.64;74.10;99626.19;105724;1255;73032;-23
2023/10/03 02:33:23;;;;;;;12.90;5.80;;;;;;;10.47;74.91;99624.80;105881;1254;74855;-23
2023/10/03 02:35:51;;;;;;;14.60;6.50;;;;;;;10.21;75.63;99624.17;105711;1254;72750;-23
2023/10/03 02:38:25;;;;;;;16.50;6.50;;;;;;;10.06;76.30;99628.55;105753;1252;61056;-24
2023/10/03 02:40:59;;;;;;;14.80;4.40;;;;;;;10.02;76.46;99631.59;105627;1257;61142;-23
2023/10/03 02:43:31;;;;;;;12.80;5.50;;;;;;;10.57;75.89;99635.38;105778;1257;71633;-23
2023/10/03 02:45:59;;;;;;;10.10;5.30;;;;;;;10.99;73.68;99637.77;105625;1261;73087;-23
2023/10/03 02:48:28;;;;;;;13.20;5.20;;;;;;;11.01;73.58;99640.90;105697;1254;72733;-23
2023/10/03 02:50:55;;;;;;;11.80;5.30;;;;;;;10.95;73.63;99642.89;105634;1254;61062;-23
2023/10/03 02:53:22;;;;;;;13.30;5.50;;;;;;;10.72;74.10;99641.59;105824;1257;61746;-23
2023/10/03 02:55:54;;;;;;;14.50;6.20;;;;;;;10.34;75.73;99638.36;105858;1254;73533;-23
2023/10/03 02:58:21;;;;;;;11.10;5.30;;;;;;;10.09;76.83;99634.75;105686;1254;74283;-23
2023/10/03 03:00:49;;;;;;;10.90;4.60;;;;;;;10.02;77.11;99631.61;105655;1254;72243;-23
2023/10/03 03:03:16;;;;;;;9.80;4.20;;;;;;;10.53;77.16;99630.99;105472;1253;61178;-23
2023/10/03 03:05:44;;;;;;;17.30;6.00;;;;;;;11.09;74.68;99634.92;105567;1257;61090;-23
2023/10/03 03:10:57;;;;;;;9.70;5.00;;;;;;;11.14;73.63;99626.24;105904;1257;74134;-23
2023/10/03 03:13:26;;;;;;;12.80;6.50;;;;;;;10.99;73.79;99625.39;105708;1254;72541;-23
2023/10/03 03:15:59;;;;;;;14.30;5.70;;;;;;;10.80;74.14;99626.44;105720;1255;61138;-23
2023/10/03 03:18:30;;;;;;;;;;;;;;;10.60;74.68;99621.63;105668;1258;61243;-23
2023/10/03 03:20:58;;;;;;;14.90;5.30;;;;;;;10.36;75.65;99618.83;105724;1254;73536;-23
2023/10/03 03:23:31;;;;;;;10.60;4.30;;;;;;;10.23;76.39;99618.50;105344;1254;74230;-23
2023/10/03 03:28:46;;;;;;;11.10;5.10;;;;;;;11.37;74.13;99615.45;105872;1254;61168;-23
2023/10/03 03:31:22;;;;;;;10.30;4.50;;;;;;;11.43;73.33;99612.92;105706;1254;60987;-23
2023/10/03 03:33:51;;;;;;;13.30;5.20;;;;;;;11.32;73.54;99609.93;105421;1254;73740;-23
2023/10/03 03:36:20;;;;;;;14.50;5.40;;;;;;;11.13;73.53;99613.07;105353;1254;74358;-23
2023/10/03 03:38:47;;;;;;;12.30;5.80;;;;;;;10.89;74.18;99615.73;105420;1257;71682;-23
2023/10/03 03:41:15;;;;;;;12.40;5.50;;;;;;;10.74;74.27;99615.58;105597;1254;61237;-23
2023/10/03 03:43:45;;;;;;;12.90;5.80;;;;;;;10.60;75.18;99614.21;105711;1260;61240;-23
2023/10/03 03:46:12;;;;;;;16.10;4.40;;;;;;;10.47;75.47;99613.34;105697;1254;73690;-23
2023/10/03 03:48:40;;;;;;;10.50;4.60;;;;;;;10.99;75.80;99610.84;105636;1254;74344;-23
2023/10/03 03:51:09;;;;;;;10.20;4.70;;;;;;;11.58;74.43;99604.85;105697;1254;72640;-23
2023/10/03 03:53:37;;;;;;;12.90;5.80;;;;;;;11.69;73.44;99609.58;105907;1254;61110;-23
2023/10/03 03:56:05;;;;;;;14.50;5.60;;;;;;;11.56;73.48;99615.45;105762;1258;61242;-23
2023/10/03 03:58:33;;;;;;;15.40;6.20;;;;;;;11.34;73.50;99614.81;105805;1253;73740;-23
2023/10/03 04:01:00;;;;;;;21.10;6.30;;;;;;;11.15;73.64;99612.07;105727;1257;74315;-23
2023/10/03 04:03:34;;;;;;;16.90;6.00;;;;;;;10.98;73.99;99612.95;105871;1253;72506;-23
2023/10/03 04:06:02;;;;;;;;;;;;;;;10.80;74.33;99609.07;105563;1254;61174;-23
2023/10/03 04:08:29;;;;;;;11.20;5.10;;;;;;;10.61;75.27;99608.70;105549;1257;61157;-23
2023/10/03 04:10:56;;;;;;;11.10;4.80;;;;;;;10.50;75.52;99608.96;105854;1254;74473;-23
2023/10/03 04:13:24;;;;;;;8.50;4.10;;;;;;;11.01;75.89;99609.77;105889;1254;74322;-23
2023/10/03 04:15:52;;;;;;;14.20;5.70;;;;;;;11.63;74.66;99607.80;105878;1254;72337;-23
2023/10/03 04:18:19;;;;;;;11.60;5.70;;;;;;;11.78;73.33;99605.40;105607;1257;61160;-23
2023/10/03 04:20:47;;;;;;;9.80;5.20;;;;;;;11.70;73.14;99606.70;105812;1257;61111;-23
2023/10/03 04:23:15;;;;;;;12.60;5.20;;;;;;;11.53;73.17;99609.23;105710;1254;73787;-23
2023/10/03 04:25:42;;;;;;;13.20;6.10;;;;;;;11.35;73.31;99600.19;105692;1254;74322;-23
2023/10/03 04:28:11;;;;;;;15.20;6.00;;;;;;;11.14;73.62;99601.34;105875;1253;73096;-23
2023/10/03 04:30:41;;;;;;;14.60;6.10;;;;;;;10.95;74.26;99608.54;105723;1254;61780;-23
2023/10/03 04:33:08;;;;;;;8.00;3.80;;;;;;;10.81;74.74;99605.02;105662;1257;61110;-23
2023/10/03 04:35:35;;;;;;;9.00;4.30;;;;;;;11.25;75.09;99602.46;105480;1259;73676;-23
2023/10/03 04:38:04;;;;;;;11.80;4.60;;;;;;;11.76;73.48;99601.02;105796;1254;74299;-23
2023/10/03 04:40:34;;;;;;;16.50;4.70;;;;;;;11.89;72.64;99604.55;105810;1257;72674;-23
2023/10/03 04:43:10;;;;;;;15.50;5.70;;;;;;;11.73;72.71;99606.16;105859;1253;61144;-23
2023/10/03 04:45:39;;;;;;;11.60;5.60;;;;;;;11.48;73.09;99608.22;105532;1260;61189;-23
2023/10/03 04:48:07;;;;;;;15.30;6.00;;;;;;;11.31;73.58;99606.20;105630;1254;73815;-23
2023/10/03 04:50:39;;;;;;;18.60;6.50;;;;;;;11.13;74.07;99608.06;105528;1258;74515;-23
2023/10/03 04:53:09;;;;;;;18.20;6.80;;;;;;;10.97;74.47;99609.91;105671;1254;72434;-23
2023/10/03 04:55:36;;;;;;;11.30;4.60;;;;;;;10.90;74.77;99614.61;105669;1257;63195;-23
2023/10/03 04:58:03;;;;;;;21.60;5.00;;;;;;;11.42;74.71;99614.02;105770;1254;61161;-23
2023/10/03 05:00:30;;;;;;;14.10;5.30;;;;;;;12.04;73.15;99613.17;105827;1253;74323;-23
2023/10/03 05:02:57;;;;;;;13.80;6.10;;;;;;;12.11;71.78;99607.91;105558;1257;74262;-23
2023/10/03 05:05:26;;;;;;;13.80;5.70;;;;;;;11.97;72.03;99608.98;105898;1254;72363;-23
2023/10/03 05:07:54;;;;;;;15.90;5.60;;;;;;;11.75;72.55;99608.58;105575;1256;61155;-23
2023/10/03 05:10:21;;;;;;;17.30;6.40;;;;;;;11.50;73.12;99614.50;105549;1254;61191;-23
2023/10/03 05:12:50;;;;;;;10.70;5.50;;;;;;;11.27;73.83;99616.41;105567;1257;73684;-23
2023/10/03 05:15:17;;;;;;;18.10;6.10;;;;;;;11.07;75.09;99617.83;105825;1254;74172;-23
2023/10/03 05:17:45;;;;;;;10.80;4.60;;;;;;;11.01;75.35;99621.43;105475;1254;73274;-22
2023/10/03 05:20:13;;;;;;;9.20;4.50;;;;;;;11.50;74.96;99618.98;105620;1253;61065;-22
2023/10/03 05:22:41;;;;;;;14.20;5.50;;;;;;;11.94;73.15;99621.08;105664;1255;61179;-22
2023/10/03 05:25:13;;;;;;;9.70;4.70;;;;;;;12.03;72.25;99617.80;105869;1253;72564;-23
2023/10/03 05:27:43;;;;;;;9.20;4.40;;;;;;;11.92;72.80;99618.59;105707;1254;74881;-23
2023/10/03 05:30:10;;;;;;;11.40;5.50;;;;;;;11.73;73.20;99615.88;105884;1254;73278;-23
2023/10/03 05:32:38;;;;;;;11.90;5.00;;;;;;;11.63;73.80;99614.39;105680;1253;61106;-23
2023/10/03 05:35:07;;;;;;;15.60;6.60;;;;;;;11.46;74.43;99614.42;105703;1257;61183;-23
2023/10/03 05:37:34;;;;;;;10.70;4.60;;;;;;;11.34;75.23;99610.84;105614;1253;73603;-23
2023/10/03 05:40:20;;;;;;;15.60;5.40;;;;;;;11.81;74.67;99609.20;105722;1254;74257;-24
2023/10/03 05:42:47;;;;;;;10.30;4.70;;;;;;;12.22;72.75;99610.88;105691;1253;73069;-25
2023/10/03 05:45:15;;;;;;;14.40;6.50;;;;;;;12.17;72.20;99608.14;105885;1253;61038;-24
2023/10/03 05:47:46;;;;;;;22.30;6.70;;;;;;;11.92;73.38;99605.54;105855;1257;61095;-24
2023/10/03 05:50:16;;;;;;;11.20;5.70;;;;;;;11.72;74.00;99600.94;105695;1257;72709;-24
2023/10/03 05:52:44;;;;;;;12.60;5.50;;;;;;;11.56;74.61;99595.39;105899;1258;74373;-23
2023/10/03 05:55:11;;;;;;;11.50;5.50;;;;;;;11.46;75.25;99597.39;105693;1254;71609;-23
2023/10/03 05:57:41;;;;;;;23.30;6.30;;;;;;;11.90;74.30;99590.08;105872;1254;61169;-23
2023/10/03 06:00:18;;;;;;;14.50;5.30;;;;;;;12.21;72.87;99592.35;105625;1253;61170;-23
2023/10/03 06:02:47;;;;;;;17.70;6.10;;;;;;;12.20;72.68;99592.92;105699;1257;73621;-23
2023/10/03 06:05:15;;;;;;;17.20;7.00;;;;;;;12.24;72.68;99596.30;105664;1253;74355;-23
2023/10/03 06:07:43;;;;;;;17.60;6.60;;;;;;;12.17;72.77;99600.19;105668;1259;72521;-23
2023/10/03 06:10:11;;;;;;;13.60;6.20;;;;;;;12.06;73.06;99599.80;105672;1253;61140;-23
2023/10/03 06:12:38;;;;;;;12.70;5.10;;;;;;;12.14;73.10;99593.80;105917;1257;61123;-23
2023/10/03 06:15:06;;;;;;;10.50;5.10;;;;;;;12.70;71.70;99595.77;105839;1253;73798;-23
2023/10/03 06:17:34;;;;;;;16.50;6.10;;;;;;;13.08;69.81;99594.77;105677;1259;74380;-24
2023/10/03 06:20:03;;;;;;;14.50;6.50;;;;;;;13.06;69.43;99593.86;105624;1253;70451;-23
2023/10/03 06:22:32;;;;;;;13.20;6.60;;;;;;;13.06;69.57;99594.02;105714;1253;61157;-23
2023/10/03 06:25:00;;;;;;;13.60;6.30;;;;;;;13.11;69.32;99589.40;105908;1257;61171;-23
2023/10/03 06:27:27;;;;;;;16.50;6.10;;;;;;;13.12;69.13;99585.52;105887;1253;73181;-22
2023/10/03 06:29:55;;;;;;;14.10;6.60;;;;;;;13.11;69.23;99587.34;105760;1259;74249;-23
2023/10/03 06:32:22;;;;;;;15.90;6.90;;;;;;;13.15;69.35;99590.19;105877;1253;72679;-22
2023/10/03 06:34:49;;;;;;;14.20;5.80;;;;;;;13.23;68.75;99591.08;105674;1253;62001;-22
2023/10/03 06:37:16;;;;;;;13.90;6.70;;;;;;;13.69;67.36;99593.48;105675;1256;61097;-22
2023/10/03 06:39:43;;;;;;;16.00;7.20;;;;;;;14.10;66.18;99592.78;105499;1253;73890;-23
2023/10/03 06:42:11;;;;;;;12.00;6.20;;;;;;;14.29;65.55;99592.20;105760;1257;74306;-23
2023/10/03 06:44:38;;;;;;;11.80;6.10;;;;;;;14.30;64.98;99591.04;105792;1253;71348;-22
2023/10/03 06:47:06;;;;;;;16.00;6.90;;;;;;;14.24;65.24;99590.35;105698;1253;61116;-22
2023/10/03 06:49:34;;;;;;;14.10;6.00;;;;;;;14.25;65.04;99588.30;105794;1259;61122;-23
2023/10/03 06:52:01;;;;;;;15.30;6.90;;;;;;;14.26;65.04;99584.23;105618;1260;73838;-22
2023/10/03 06:54:29;;;;;;;9.70;3.80;;;;;;;14.33;65.10;99585.33;105731;1257;74349;-22
2023/10/03 06:56:57;;;;;;;15.40;6.50;;;;;;;14.29;64.89;99584.84;105900;1257;72694;-22
2023/10/03 06:59:24;;;;;;;15.30;6.20;;;;;;;14.28;65.11;99579.46;105776;1253;61224;-22
2023/10/03 07:01:51;;;;;;;13.30;6.10;;;;;;;14.32;65.19;99577.05;105612;1252;61132;-23
2023/10/03 07:04:19;;;;;;;15.50;6.20;;;;;;;14.46;64.89;99577.55;105856;1252;73752;-23
2023/10/03 07:06:46;;;;;;;12.60;5.60;;;;;;;14.57;64.53;99578.35;105880;1258;74349;-23
2023/10/03 07:09:14;;;;;;;15.90;6.70;;;;;;;14.68;64.35;99578.19;105851;1253;72761;-23
2023/10/03 07:11:41;;;;;;;14.80;6.00;;;;;;;14.84;64.05;99578.44;105869;1253;61144;-23
2023/10/03 07:14:12;;;;;;;16.40;6.00;;;;;;;14.99;63.44;99579.84;105874;1257;61132;-23
2023/10/03 07:16:41;;;;;;;14.20;6.30;;;;;;;15.13;63.02;99577.68;105741;1254;75662;-23
2023/10/03 07:19:13;;;;;;;14.70;5.60;;;;;;;15.22;62.35;99580.58;105580;1257;74785;-23
2023/10/03 07:21:43;;;;;;;12.10;5.50;;;;;;;15.28;61.85;99581.04;105711;1253;72513;-23
2023/10/03 07:24:11;;;;;;;15.50;5.50;;;;;;;15.36;61.87;99585.24;105676;1253;61081;-23
2023/10/03 07:26:38;;;;;;;19.10;6.00;;;;;;;15.43;61.66;99588.45;105493;1252;61165;-23
2023/10/03 07:29:06;;;;;;;17.70;6.80;;;;;;;15.45;61.05;99586.72;105582;1253;73862;-23
2023/10/03 07:31:33;;;;;;;15.60;5.40;;;;;;;15.57;61.02;99590.41;105498;1257;74176;-22
2023/10/03 07:34:01;;;;;;;16.50;4.50;;;;;;;15.65;60.27;99590.22;105562;1257;73540;-23
2023/10/03 07:36:28;;;;;;;21.20;6.10;;;;;;;15.68;60.17;99594.15;105529;1254;61186;-23
2023/10/03 07:38:55;;;;;;;17.00;6.70;;;;;;;15.81;60.09;99592.61;105790;1252;61125;-23
2023/10/03 07:41:23;;;;;;;19.70;6.30;;;;;;;15.93;59.51;99595.48;105874;1251;73877;-23
2023/10/03 07:43:52;;;;;;;17.80;5.70;;;;;;;16.07;59.36;99596.26;105793;1255;74180;-22
2023/10/03 07:46:26;;;;;;;18.10;6.40;;;;;;;16.15;59.13;99594.33;105770;1251;72449;-23
2023/10/03 07:48:54;;;;;;;13.90;5.70;;;;;;;16.17;58.59;99592.91;105460;1259;62517;-22
2023/10/03 07:51:26;;;;;;;15.90;6.70;;;;;;;16.24;58.59;99594.84;105665;1256;61379;-22
2023/10/03 07:53:55;;;;;;;18.30;6.10;;;;;;;16.39;58.61;99597.76;105707;1258;73925;-22
2023/10/03 07:56:29;;;;;;;20.10;5.90;;;;;;;16.63;57.15;99591.77;105609;1256;74415;-23
2023/10/03 07:59:01;;;;;;;13.10;5.10;;;;;;;16.79;57.35;99595.52;105586;1254;72672;-22
2023/10/03 08:01:29;;;;;;;16.80;5.60;;;;;;;16.89;56.76;99590.13;105592;1251;61719;-23
2023/10/03 08:03:58;;;;;;;22.80;5.20;;;;;;;17.01;56.51;99589.82;105779;1256;61050;-22
2023/10/03 08:06:33;;;;;;;18.60;5.80;;;;;;;17.06;56.03;99594.39;105576;1253;73825;-23
2023/10/03 08:09:00;;;;;;;17.50;6.70;;;;;;;17.13;55.48;99592.53;105600;1253;74312;-23
2023/10/03 08:11:29;;;;;;;28.60;6.40;;;;;;;17.20;55.75;99593.17;105532;1254;74555;-23
2023/10/03 08:14:11;;;;;;;20.70;6.00;;;;;;;17.21;55.09;99594.36;105606;1253;61889;-22
2023/10/03 08:16:42;;;;;;;17.60;5.90;;;;;;;17.13;55.29;99596.55;105709;1253;61363;-23
2023/10/03 08:19:27;;;;;;;15.90;5.30;;;;;;;17.18;54.89;99600.41;105617;1251;74792;-23
2023/10/03 08:21:55;;;;;;;10.50;4.90;;;;;;;17.30;54.72;99594.34;105590;1257;76206;-22
2023/10/03 08:24:28;;;;;;;31.60;5.00;;;;;;;17.30;54.32;99592.86;105706;1251;74314;-22
2023/10/03 08:26:59;;;;;;;;;;;;;;;17.32;54.22;99591.86;105885;1254;62254;-22
2023/10/03 08:29:27;;;;;;;14.10;4.40;;;;;;;17.38;53.85;99589.65;105764;1252;61989;-22
2023/10/03 08:31:59;;;;;;;16.70;4.80;;;;;;;17.51;53.56;99588.11;105762;1257;74603;-22
2023/10/03 08:34:28;;;;;;;18.30;5.40;;;;;;;17.61;53.37;99583.15;105703;1258;76300;-23
2023/10/03 08:36:58;;;;;;;15.30;4.20;;;;;;;17.66;53.02;99581.73;105720;1253;72743;-21
2023/10/03 08:39:27;;;;;;;8.40;3.50;;;;;;;17.64;52.74;99580.70;105391;1253;61104;-21
2023/10/03 08:42:12;;;;;;;9.10;3.40;;;;;;;17.78;52.06;99578.19;105337;1251;61088;-21
2023/10/03 08:45:22;;;;;;;7.10;3.20;;;;;;;17.80;52.21;99576.21;105683;1258;73907;-21
2023/10/03 08:47:51;;;;;;;8.00;3.70;;;;;;;17.93;51.05;99572.60;105690;1260;74448;-22
2023/10/03 08:50:29;;;;;;;12.10;4.70;;;;;;;18.18;50.66;99573.41;105742;1259;72462;-21
2023/10/03 08:52:56;;;;;;;15.60;5.00;;;;;;;18.29;50.25;99565.79;105705;1254;61103;-21
2023/10/03 08:55:26;;;;;;;12.40;4.50;;;;;;;18.41;50.03;99565.17;105721;1258;61120;-23
2023/10/03 08:57:53;;;;;;;9.40;3.70;;;;;;;18.75;49.00;99570.02;105720;1253;75752;-22
2023/10/03 09:00:25;;;;;;;9.80;4.10;;;;;;;18.97;48.83;99570.55;105758;1253;74266;-22
2023/10/03 09:03:09;;;;;;;17.70;5.00;;;;;;;19.22;47.84;99568.14;105817;1252;72542;-22
2023/10/03 09:05:39;;;;;;;10.60;4.10;;;;;;;19.58;47.29;99563.02;105680;1253;61162;-22
2023/10/03 09:08:08;;;;;;;10.60;4.70;;;;;;;19.84;46.87;99565.95;105562;1253;61152;-22
2023/10/03 09:10:51;;;;;;;11.90;4.30;;;;;;;19.81;46.18;99561.49;105753;1253;73939;-22
2023/10/03 09:13:28;;;;;;;8.80;3.80;;;;;;;19.85;46.08;99563.56;105766;1258;74927;-22
2023/10/03 09:16:00;;;;;;;12.10;4.50;;;;;;;19.82;45.70;99559.13;105540;1254;74717;-21
2023/10/03 09:18:30;;;;;;;11.50;5.00;;;;;;;20.15;45.07;99563.75;105544;1253;61101;-23
2023/10/03 09:21:00;;;;;;;11.10;4.10;;;;;;;20.18;44.71;99563.00;105651;1260;61222;-23
2023/10/03 09:23:38;;;;;;;19.70;4.70;;;;;;;20.27;44.80;99561.08;105822;1253;72615;-22
2023/10/03 09:26:08;;;;;;;16.30;5.10;;;;;;;20.41;44.15;99551.92;105738;1251;76116;-23
2023/10/03 09:28:35;;;;;;;11.60;4.10;;;;;;;20.40;43.87;99554.32;105502;1258;72500;-23
2023/10/03 09:31:08;;;;;;;8.90;4.10;;;;;;;20.60;44.28;99556.65;105742;1251;61052;-23
2023/10/03 09:33:39;;;;;;;14.30;4.70;;;;;;;20.54;43.39;99552.35;105737;1253;61171;-22
2023/10/03 09:36:07;;;;;;;14.70;4.80;;;;;;;20.55;43.63;99552.11;105544;1253;73903;-24
2023/10/03 09:38:47;;;;;;;13.10;4.60;;;;;;;20.65;43.75;99549.42;105676;1253;72914;-23
2023/10/03 09:41:18;;;;;;;12.80;4.40;;;;;;;20.65;43.18;99541.78;105673;1251;72650;-22
2023/10/03 09:43:47;;;;;;;9.20;3.90;;;;;;;20.51;42.87;99546.27;105674;1257;61818;-24
2023/10/03 09:46:23;;;;;;;8.50;3.60;;;;;;;20.67;42.25;99540.30;105714;1258;61097;-23
2023/10/03 09:48:54;;;;;;;16.90;4.80;;;;;;;20.54;42.38;99541.81;105497;1253;73598;-24
2023/10/03 09:51:36;;;;;;;13.20;4.60;;;;;;;20.58;42.46;99541.38;105748;1254;74914;-24
2023/10/03 09:54:06;;;;;;;9.20;3.90;;;;;;;20.52;42.66;99541.20;105653;1254;72470;-24
2023/10/03 09:56:36;;;;;;;14.60;4.50;;;;;;;20.83;41.74;99534.13;105423;1253;61138;-22
2023/10/03 09:59:05;;;;;;;11.50;4.70;;;;;;;20.99;41.93;99532.39;105748;1256;61126;-22
2023/10/03 10:01:34;;;;;;;13.40;4.60;;;;;;;20.65;42.66;99532.27;105618;1253;72170;-22
2023/10/03 10:04:03;;;;;;;18.90;5.20;;;;;;;20.58;43.01;99536.91;105831;1256;74403;-22
2023/10/03 10:06:55;;;;;;;17.60;5.00;;;;;;;20.85;42.45;99527.77;105537;1253;72553;-22
2023/10/03 10:09:27;;;;;;;15.40;4.60;;;;;;;20.80;42.02;99530.35;105658;1253;61200;-22
2023/10/03 10:12:21;;;;;;;18.00;5.00;;;;;;;20.41;42.77;99529.61;105626;1259;62283;-23
2023/10/03 10:17:51;;;;;;;17.70;5.00;;;;;;;21.54;40.55;99517.30;105954;1253;74238;-22
2023/10/03 10:20:38;;;;;;;12.80;3.90;;;;;;;21.76;40.02;99512.68;105895;1253;72719;-22
2023/10/03 10:25:41;;;;;;;16.00;4.30;;;;;;;22.05;38.96;99511.00;105713;1258;61223;-22
2023/10/03 10:28:10;;;;;;;12.70;4.10;;;;;;;21.56;39.46;99506.41;105712;1253;73852;-22
2023/10/03 10:30:44;;;;;;;15.80;4.40;;;;;;;21.77;38.99;99503.98;105743;1254;74535;-22
2023/10/03 10:33:14;;;;;;;13.20;4.60;;;;;;;21.86;38.90;99495.63;105681;1260;72455;-22
2023/10/03 10:36:03;;;;;;;15.80;4.10;;;;;;;21.92;38.94;99495.29;105913;1255;61080;-22
2023/10/03 10:38:30;;;;;;;5.30;3.20;;;;;;;21.58;39.16;99499.17;105709;1257;61131;-22
2023/10/03 10:44:14;;;;;;;9.00;4.00;;;;;;;21.97;38.78;99478.58;105898;1254;74329;-22
2023/10/03 10:46:46;;;;;;;13.90;4.50;;;;;;;22.24;38.42;99481.95;105960;1256;72513;-22
2023/10/03 10:49:34;;;;;;;9.70;4.10;;;;;;;22.19;38.74;99477.13;105593;1251;61073;-21
2023/10/03 10:52:02;;;;;;;8.10;3.30;;;;;;;22.78;37.61;99481.33;105486;1251;61117;-22
2023/10/03 10:54:29;;;;;;;11.30;3.80;;;;;;;22.67;37.32;99475.29;105857;1253;73773;-22
2023/10/03 10:57:02;;;;;;;6.50;3.50;;;;;;;22.18;37.74;99474.40;105896;1251;74303;-22
2023/10/03 10:59:35;;;;;;;8.20;3.50;;;;;;;22.05;38.28;99469.18;105700;1254;72706;-21
2023/10/03 11:02:04;;;;;;;14.50;4.60;;;;;;;22.31;37.92;99465.48;105718;1253;61250;-21
2023/10/03 11:04:34;;;;;;;9.70;3.90;;;;;;;22.50;37.36;99469.20;105654;1251;61203;-22
2023/10/03 11:07:01;;;;;;;11.90;3.40;;;;;;;22.48;37.42;99467.02;105534;1253;72549;-22
2023/10/03 11:09:29;;;;;;;12.00;4.10;;;;;;;22.15;38.22;99465.02;105820;1253;74455;-22
2023/10/03 11:11:57;;;;;;;8.00;3.50;;;;;;;22.47;38.14;99463.94;105672;1253;72538;-22
2023/10/03 11:14:29;;;;;;;8.60;3.70;;;;;;;22.99;36.97;99452.31;105580;1253;61143;-22
2023/10/03 11:16:56;;;;;;;9.00;3.50;;;;;;;23.12;36.53;99451.03;105624;1251;61098;-22
2023/10/03 11:19:23;;;;;;;10.50;4.20;;;;;;;22.81;36.69;99447.98;105809;1253;74149;-22
2023/10/03 11:21:51;;;;;;;5.70;3.50;;;;;;;22.32;37.89;99442.73;105593;1254;74081;-23
2023/10/03 11:24:22;;;;;;;7.70;3.70;;;;;;;22.64;37.45;99438.48;105427;1253;73190;-22
2023/10/03 11:26:57;;;;;;;9.80;4.10;;;;;;;22.74;37.11;99439.89;105530;1253;61131;-22
2023/10/03 11:29:34;;;;;;;9.00;3.70;;;;;;;22.58;37.03;99436.77;103390;1253;3077366;-22
2023/10/03 11:32:02;;;;;;;8.80;3.30;;;;;;;22.84;36.88;99431.20;105590;1255;73887;-22
2023/10/03 11:34:31;;;;;;;10.50;3.60;;;;;;;22.96;36.68;99426.45;105659;1253;74111;-22
2023/10/03 11:36:59;;;;;;;9.00;4.20;;;;;;;22.74;36.93;99427.30;105860;1253;72635;-22
2023/10/03 11:39:26;;;;;;;8.00;4.20;;;;;;;22.52;37.39;99424.89;105554;1252;61091;-22
2023/10/03 11:41:53;;;;;;;12.50;3.70;;;;;;;22.22;37.70;99422.45;105665;1256;61176;-22
2023/10/03 11:44:21;;;;;;;10.40;3.60;;;;;;;21.99;37.81;99425.27;105842;1254;73734;-22
2023/10/03 11:46:48;;;;;;;6.80;3.70;;;;;;;22.24;37.52;99417.93;105655;1254;74119;-23
2023/10/03 11:49:16;;;;;;;9.40;3.90;;;;;;;22.19;37.44;99415.57;105858;1256;72573;-23
2023/10/03 11:51:43;;;;;;;9.10;3.30;;;;;;;22.19;37.55;99415.57;105567;1253;61049;-23